Autryville, North Carolina
Current Conditions -  °F | °C
As of 9:53 PM on Friday 19 Dec 2014 (Local Time) from KFAY Reporting Station
Clear Clear  
Wind Chill: 38°   Ceiling: Unl
Heat Index: 41°   Visibility: 10mi
Dew Point: 32°   Wind: 5mph
Humidity: 70%   Direction: 30°NNE
Pressure: 30.19"   Gusts: NA
Location:  35°N, 78.64°W
Report Text: KFAY 200253Z AUTO 03004KT 10SM CLR 05/00 A3019 RMK AO2 SLP217 T00500000 51010
Loading
Personal Weather Stations






























Interactive Weather Map New forecast layout! Learn more

10-Day Weather Forecast

Advertisements
Track Severe Weather on mobile